createdAt,value
2022-09-17T00:01:43.914Z,96641.67
2022-09-17T00:04:12.449Z,96635.95
2022-09-17T00:06:40.518Z,96635.67
2022-09-17T00:09:12.218Z,96628.20
2022-09-17T00:11:43.025Z,96623.91
2022-09-17T00:14:17.020Z,96627.07
2022-09-17T00:16:47.582Z,96630.51
2022-09-17T00:19:23.054Z,96639.11
2022-09-17T00:21:52.875Z,96645.07
2022-09-17T00:24:24.169Z,96651.13
2022-09-17T00:26:54.815Z,96644.44
2022-09-17T00:29:23.400Z,96641.58
2022-09-17T00:31:51.771Z,96645.45
2022-09-17T00:34:19.919Z,96649.33
2022-09-17T00:36:49.214Z,96650.60
2022-09-17T00:39:17.889Z,96651.21
2022-09-17T00:41:46.901Z,96654.16
2022-09-17T00:44:36.906Z,96660.23
2022-09-17T00:47:05.867Z,96657.92
2022-09-17T00:49:34.827Z,96659.73
2022-09-17T00:52:13.370Z,96653.73
2022-09-17T00:54:46.578Z,96653.63
2022-09-17T00:57:14.876Z,96657.44
2022-09-17T00:59:42.996Z,96660.98
2022-09-17T01:02:11.457Z,96649.17
2022-09-17T01:04:39.680Z,96632.02
2022-09-17T01:07:42.351Z,96617.64
2022-09-17T01:10:38.961Z,96622.84
2022-09-17T01:13:13.208Z,96628.10
2022-09-17T01:15:55.317Z,96642.06
2022-09-17T01:19:00.671Z,96643.08
2022-09-17T01:22:03.737Z,96652.33
2022-09-17T01:24:52.759Z,96645.92
2022-09-17T01:27:51.080Z,96646.30
2022-09-17T01:30:43.260Z,96648.61
2022-09-17T01:33:46.626Z,96659.39
2022-09-17T01:36:26.477Z,96666.20
2022-09-17T01:39:11.279Z,96661.45
2022-09-17T01:41:42.318Z,96668.28
2022-09-17T01:44:31.658Z,96668.68
2022-09-17T01:47:21.623Z,96672.73
2022-09-17T01:49:52.975Z,96671.06
2022-09-17T01:52:23.494Z,96674.36
2022-09-17T01:54:58.215Z,96670.32
2022-09-17T01:57:54.244Z,96652.55
2022-09-17T02:00:23.518Z,96641.02
2022-09-17T02:02:54.870Z,96636.55
2022-09-17T02:05:35.244Z,96630.23
2022-09-17T02:08:15.170Z,96633.73
2022-09-17T02:10:46.668Z,96625.42
2022-09-17T02:13:21.170Z,96622.00
2022-09-17T02:16:10.662Z,96628.91
2022-09-17T02:18:47.948Z,96630.64
2022-09-17T02:21:19.457Z,96627.55
2022-09-17T02:24:12.301Z,96624.96
2022-09-17T02:26:45.999Z,96654.07
2022-09-17T02:29:24.846Z,96645.00
2022-09-17T02:31:54.766Z,96644.97
2022-09-17T02:34:23.592Z,96650.84
2022-09-17T02:36:52.796Z,96637.94
2022-09-17T02:39:20.922Z,96643.73
2022-09-17T02:42:28.045Z,96659.11
2022-09-17T02:45:17.297Z,96645.56
2022-09-17T02:48:09.017Z,96652.00
2022-09-17T02:51:11.484Z,96648.45
2022-09-17T02:54:01.214Z,96633.61
2022-09-17T02:56:52.226Z,96631.11
2022-09-17T02:59:44.057Z,96638.15
2022-09-17T03:02:28.327Z,96639.91
2022-09-17T03:04:58.077Z,96636.83
2022-09-17T03:07:29.316Z,96622.64
2022-09-17T03:09:57.532Z,96606.49
2022-09-17T03:12:27.036Z,96609.71
2022-09-17T03:14:55.293Z,96624.22
2022-09-17T03:17:23.494Z,96619.68
2022-09-17T03:19:52.157Z,96630.03
2022-09-17T03:22:21.766Z,96636.70
2022-09-17T03:24:50.120Z,96636.61
2022-09-17T03:27:21.198Z,96635.27
2022-09-17T03:29:49.331Z,96634.09
2022-09-17T03:32:17.777Z,96633.61
2022-09-17T03:34:47.014Z,96638.78
2022-09-17T03:37:16.090Z,96651.13
2022-09-17T03:39:44.861Z,96654.02
2022-09-17T03:42:12.885Z,96661.15
2022-09-17T03:44:45.211Z,96666.91
2022-09-17T03:47:13.638Z,96665.52
2022-09-17T03:49:41.717Z,96660.73
2022-09-17T03:52:09.858Z,96662.66
2022-09-17T03:54:38.113Z,96664.99
2022-09-17T03:57:06.644Z,96669.67
2022-09-17T03:59:34.635Z,96675.67
2022-09-17T04:02:02.866Z,96676.86
2022-09-17T04:04:31.555Z,96677.41
2022-09-17T04:06:59.863Z,96669.98
2022-09-17T04:09:28.127Z,96675.27
2022-09-17T04:11:56.531Z,96683.52
2022-09-17T04:14:24.951Z,96686.61
2022-09-17T04:16:53.028Z,96685.48
2022-09-17T04:19:22.007Z,96686.56
2022-09-17T04:21:50.039Z,96672.73
2022-09-17T04:24:18.861Z,96661.81
2022-09-17T04:26:47.683Z,96656.65
2022-09-17T04:29:16.061Z,96650.94
2022-09-17T04:31:44.624Z,96654.99
2022-09-17T04:34:12.678Z,96652.23
2022-09-17T04:36:40.790Z,96655.94
2022-09-17T04:39:09.714Z,96649.02
2022-09-17T04:41:37.883Z,96650.30
2022-09-17T04:44:06.799Z,96659.80
2022-09-17T04:46:35.029Z,96671.84
2022-09-17T04:49:03.400Z,96678.96
2022-09-17T04:51:34.424Z,96684.41
2022-09-17T04:54:02.977Z,96694.00
2022-09-17T04:56:31.103Z,96695.30
2022-09-17T04:58:59.346Z,96691.42
2022-09-17T05:01:28.225Z,96688.98
2022-09-17T05:03:57.735Z,96691.54
2022-09-17T05:06:25.873Z,96693.50
2022-09-17T05:08:53.977Z,96686.51
2022-09-17T05:11:22.226Z,96682.30
2022-09-17T05:13:50.739Z,96679.60
2022-09-17T05:16:19.762Z,96675.37
2022-09-17T05:18:49.690Z,96676.11
2022-09-17T05:21:19.419Z,96687.69
2022-09-17T05:23:48.274Z,96695.02
2022-09-17T05:26:16.682Z,96694.64
2022-09-17T05:28:44.682Z,96695.21
2022-09-17T05:31:13.831Z,96697.58
2022-09-17T05:33:42.670Z,96699.73
2022-09-17T05:36:10.791Z,96705.85
2022-09-17T05:38:38.919Z,96714.41
2022-09-17T05:41:07.450Z,96714.10
2022-09-17T05:43:35.579Z,96706.82
2022-09-17T05:46:06.104Z,96695.61
2022-09-17T05:48:34.762Z,96691.61
2022-09-17T05:51:03.473Z,96693.95
2022-09-17T05:53:31.606Z,96706.42
2022-09-17T05:56:00.279Z,96714.82
2022-09-17T05:58:29.281Z,96718.34
2022-09-17T06:01:01.716Z,96711.05
2022-09-17T06:03:29.963Z,96708.34
2022-09-17T06:06:00.237Z,96715.92
2022-09-17T06:08:29.666Z,96717.55
2022-09-17T06:11:02.238Z,96709.77
2022-09-17T06:13:31.087Z,96696.19
2022-09-17T06:16:00.515Z,96685.86
2022-09-17T06:18:31.165Z,96678.13
2022-09-17T06:21:01.425Z,96663.41
2022-09-17T06:23:37.325Z,96651.20
2022-09-17T06:26:08.785Z,96650.20
2022-09-17T06:28:41.874Z,96658.31
2022-09-17T06:31:12.995Z,96663.88
2022-09-17T06:33:41.439Z,96660.02
2022-09-17T06:36:13.958Z,96653.35
2022-09-17T06:38:43.785Z,96650.80
2022-09-17T06:41:15.157Z,96648.30
2022-09-17T06:43:43.606Z,96648.64
2022-09-17T06:46:12.556Z,96653.37
2022-09-17T06:48:41.924Z,96652.91
2022-09-17T06:51:13.015Z,96652.03
2022-09-17T06:53:41.699Z,96649.80
2022-09-17T06:56:10.438Z,96646.81
2022-09-17T06:58:38.939Z,96639.12
2022-09-17T07:01:08.598Z,96636.77
2022-09-17T07:03:36.734Z,96648.08
2022-09-17T07:06:10.087Z,96652.06
2022-09-17T07:08:39.151Z,96654.75
2022-09-17T07:11:08.383Z,96653.36
2022-09-17T07:13:36.402Z,96664.10
2022-09-17T07:16:05.811Z,96665.45
2022-09-17T07:18:34.694Z,96660.49
2022-09-17T07:21:06.370Z,96658.68
2022-09-17T07:23:36.792Z,96651.47
2022-09-17T07:26:12.346Z,96635.82
2022-09-17T07:28:41.954Z,96635.10
2022-09-17T07:31:15.812Z,96639.23
2022-09-17T07:33:45.701Z,96647.89
2022-09-17T07:36:18.242Z,96659.35
2022-09-17T07:38:47.486Z,96656.50
2022-09-17T07:41:17.686Z,96651.05
2022-09-17T07:43:46.122Z,96640.09
2022-09-17T07:46:18.803Z,96636.73
2022-09-17T07:48:48.222Z,96638.59
2022-09-17T07:51:24.866Z,96649.20
2022-09-17T07:53:58.421Z,96647.67
2022-09-17T07:56:28.149Z,96635.05
2022-09-17T07:59:04.038Z,96627.91
2022-09-17T08:01:34.412Z,96620.99
2022-09-17T08:04:04.172Z,96611.04
2022-09-17T08:06:36.370Z,96603.00
2022-09-17T08:09:11.916Z,96596.86
2022-09-17T08:11:56.820Z,96584.08
2022-09-17T08:14:29.764Z,96585.74
2022-09-17T08:16:58.231Z,96585.26
2022-09-17T08:19:29.432Z,96587.20
2022-09-17T08:21:57.588Z,96593.02
2022-09-17T08:24:28.677Z,96592.88
2022-09-17T08:26:57.498Z,96588.70
2022-09-17T08:29:25.537Z,96591.23
2022-09-17T08:31:53.663Z,96594.30
2022-09-17T08:34:21.891Z,96593.61
2022-09-17T08:36:49.909Z,96583.36
2022-09-17T08:39:21.158Z,96581.64
2022-09-17T08:42:19.778Z,96580.02
2022-09-17T08:44:51.868Z,96575.63
2022-09-17T08:47:25.377Z,96556.87
2022-09-17T08:50:00.286Z,96565.36
2022-09-17T08:52:34.497Z,96573.27
2022-09-17T08:55:27.840Z,96570.83
2022-09-17T08:58:35.314Z,96548.66
2022-09-17T09:01:38.825Z,96551.36
2022-09-17T09:04:24.004Z,96548.28
2022-09-17T09:07:01.704Z,96547.13
2022-09-17T09:09:54.881Z,96550.14
2022-09-17T09:12:26.776Z,96543.89
2022-09-17T09:15:01.512Z,96532.96
2022-09-17T09:17:42.115Z,96519.81
2022-09-17T09:20:22.910Z,96511.42
2022-09-17T09:22:52.738Z,96528.00
2022-09-17T09:25:29.661Z,96519.68
2022-09-17T09:28:20.068Z,96522.08
2022-09-17T09:30:49.135Z,96526.94
2022-09-17T09:33:26.103Z,96526.04
2022-09-17T09:35:54.183Z,96518.73
2022-09-17T09:38:58.462Z,96513.30
2022-09-17T09:41:29.899Z,96500.12
2022-09-17T09:44:05.858Z,96505.36
2022-09-17T09:47:04.112Z,96523.48
2022-09-17T09:50:42.936Z,96535.61
2022-09-17T09:53:25.277Z,96519.77
2022-09-17T09:55:59.126Z,96525.18
2022-09-17T09:58:36.090Z,96519.77
2022-09-17T10:01:28.305Z,96525.77
2022-09-17T10:03:59.163Z,96535.29
2022-09-17T10:06:31.043Z,96527.54
2022-09-17T10:09:01.895Z,96498.06
2022-09-17T10:11:35.421Z,96476.52
2022-09-17T10:14:21.781Z,96510.34
2022-09-17T10:16:50.696Z,96504.27
2022-09-17T10:19:25.857Z,96488.71
2022-09-17T10:21:54.530Z,96526.98
2022-09-17T10:24:34.865Z,96534.48
2022-09-17T10:27:14.841Z,96509.80
2022-09-17T10:29:49.406Z,96494.33
2022-09-17T10:32:22.970Z,96488.15
2022-09-17T10:35:05.066Z,96478.34
2022-09-17T10:37:43.899Z,96462.91
2022-09-17T10:40:18.780Z,96453.31
2022-09-17T10:42:49.211Z,96449.30
2022-09-17T10:45:32.004Z,96469.92
2022-09-17T10:48:02.062Z,96472.03
2022-09-17T10:50:35.960Z,96448.47
2022-09-17T10:53:15.763Z,96463.38
2022-09-17T10:56:05.258Z,96473.12
2022-09-17T10:59:02.595Z,96448.91
2022-09-17T11:02:25.018Z,96477.70
2022-09-17T11:05:14.968Z,96452.05
2022-09-17T11:07:54.531Z,96448.70
2022-09-17T11:10:49.780Z,96452.52
2022-09-17T11:13:33.214Z,96459.73
2022-09-17T11:16:27.288Z,96465.50
2022-09-17T11:19:15.438Z,96456.41
2022-09-17T11:22:10.684Z,96433.27
2022-09-17T11:25:16.198Z,96427.26
2022-09-17T11:28:10.269Z,96430.40
2022-09-17T11:31:03.409Z,96427.27
2022-09-17T11:33:57.216Z,96426.50
2022-09-17T11:36:31.574Z,96428.58
2022-09-17T11:39:11.443Z,96438.86
2022-09-17T11:41:47.405Z,96439.20
2022-09-17T11:44:45.565Z,96458.89
2022-09-17T11:47:19.630Z,96430.07
2022-09-17T11:50:00.249Z,96433.30
2022-09-17T11:52:36.208Z,96456.29
2022-09-17T11:55:19.326Z,96442.48
2022-09-17T11:57:52.259Z,96424.91
2022-09-17T12:00:25.691Z,96425.77
2022-09-17T12:03:19.119Z,96443.96
2022-09-17T12:05:57.550Z,96437.38
2022-09-17T12:08:51.866Z,96413.95
2022-09-17T12:11:23.709Z,96406.14
2022-09-17T12:14:03.026Z,96429.81
2022-09-17T12:16:37.958Z,96432.04
2022-09-17T12:19:28.810Z,96448.16
2022-09-17T12:22:04.964Z,96434.02
2022-09-17T12:24:34.400Z,96401.83
2022-09-17T12:27:08.663Z,96407.20
2022-09-17T12:29:59.568Z,96393.05
2022-09-17T12:32:38.730Z,96386.25
2022-09-17T12:35:59.709Z,96383.56
2022-09-17T12:38:57.413Z,96386.04
2022-09-17T12:41:48.213Z,96379.80
2022-09-17T12:44:38.048Z,96381.94
2022-09-17T12:47:29.152Z,96374.73
2022-09-17T12:50:19.371Z,96373.67
2022-09-17T12:53:18.750Z,96374.05
2022-09-17T12:55:47.451Z,96371.27
2022-09-17T12:58:42.391Z,96375.44
2022-09-17T13:01:33.528Z,96366.03
2022-09-17T13:04:17.122Z,96365.21
2022-09-17T13:07:05.148Z,96380.39
2022-09-17T13:10:04.892Z,96366.30
2022-09-17T13:13:02.754Z,96352.73
2022-09-17T13:16:01.992Z,96333.80
2022-09-17T13:19:15.180Z,96331.23
2022-09-17T13:21:56.866Z,96326.95
2022-09-17T13:24:31.376Z,96334.52
2022-09-17T13:27:02.997Z,96342.83
2022-09-17T13:29:55.846Z,96356.40
2022-09-17T13:32:33.980Z,96369.13
2022-09-17T13:35:15.308Z,96349.95
2022-09-17T13:37:52.920Z,96362.44
2022-09-17T13:40:29.611Z,96363.85
2022-09-17T13:43:09.047Z,96350.20
2022-09-17T13:45:59.056Z,96351.11
2022-09-17T13:48:31.997Z,96344.00
2022-09-17T13:51:49.037Z,96333.34
2022-09-17T13:54:19.595Z,96321.96
2022-09-17T13:57:09.973Z,96325.39
2022-09-17T13:59:38.926Z,96314.29
2022-09-17T14:02:16.903Z,96310.83
2022-09-17T14:04:46.901Z,96303.45
2022-09-17T14:07:21.884Z,96303.85
2022-09-17T14:10:26.035Z,96311.31
2022-09-17T14:13:00.974Z,96313.14
2022-09-17T14:15:40.911Z,96308.23
2022-09-17T14:18:28.674Z,96304.48
2022-09-17T14:21:08.629Z,96297.85
2022-09-17T14:23:47.591Z,96300.69
2022-09-17T14:26:34.087Z,96298.36
2022-09-17T14:29:34.591Z,96295.04
2022-09-17T14:32:07.367Z,96295.33
2022-09-17T14:34:36.797Z,96292.91
2022-09-17T14:37:05.018Z,96286.61
2022-09-17T14:39:40.376Z,96285.05
2022-09-17T14:42:27.051Z,96282.27
2022-09-17T14:45:00.441Z,96288.13
2022-09-17T14:47:30.142Z,96289.70
2022-09-17T14:50:19.879Z,96281.45
2022-09-17T14:52:54.015Z,96265.78
2022-09-17T14:55:26.764Z,96269.98
2022-09-17T14:57:57.469Z,96277.52
2022-09-17T15:00:31.781Z,96293.55
2022-09-17T15:03:01.863Z,96305.81
2022-09-17T15:05:33.309Z,96304.67
2022-09-17T15:08:16.040Z,96290.25
2022-09-17T15:11:02.186Z,96261.92
2022-09-17T15:13:36.291Z,96249.73
2022-09-17T15:16:16.153Z,96243.66
2022-09-17T15:18:49.552Z,96243.92
2022-09-17T15:21:30.043Z,96251.60
2022-09-17T15:24:43.928Z,96261.92
2022-09-17T15:27:13.996Z,96262.17
2022-09-17T15:29:46.986Z,96251.81
2022-09-17T15:32:15.758Z,96242.11
2022-09-17T15:34:43.978Z,96231.55
2022-09-17T15:37:15.164Z,96224.67
2022-09-17T15:39:51.100Z,96226.62
2022-09-17T15:42:29.246Z,96225.58
2022-09-17T15:45:22.468Z,96227.75
2022-09-17T15:47:56.361Z,96223.40
2022-09-17T15:50:27.494Z,96216.04
2022-09-17T15:53:10.802Z,96209.37
2022-09-17T15:55:45.995Z,96205.25
2022-09-17T15:58:51.417Z,96204.20
2022-09-17T16:01:40.948Z,96203.74
2022-09-17T16:04:25.899Z,96201.23
2022-09-17T16:07:01.933Z,96199.39
2022-09-17T16:09:49.143Z,96196.16
2022-09-17T16:12:25.253Z,96187.02
2022-09-17T16:14:57.058Z,96181.50
2022-09-17T16:17:29.636Z,96178.41
2022-09-17T16:20:00.340Z,96171.34
2022-09-17T16:22:36.724Z,96165.73
2022-09-17T16:25:06.170Z,96161.01
2022-09-17T16:28:19.764Z,96146.04
2022-09-17T16:30:52.155Z,96137.41
2022-09-17T16:33:21.652Z,96134.55
2022-09-17T16:36:01.025Z,96145.70
2022-09-17T16:38:32.750Z,96151.48
2022-09-17T16:41:05.801Z,96146.10
2022-09-17T16:43:35.623Z,96145.92
2022-09-17T16:46:07.985Z,96141.79
2022-09-17T16:48:41.010Z,96124.16
2022-09-17T16:51:13.396Z,96113.06
2022-09-17T16:53:45.057Z,96110.68
2022-09-17T16:56:15.521Z,96112.35
2022-09-17T16:58:49.556Z,96115.39
2022-09-17T17:01:18.678Z,96115.71
2022-09-17T17:03:50.990Z,96128.46
2022-09-17T17:06:23.290Z,96131.08
2022-09-17T17:08:52.369Z,96114.70
2022-09-17T17:11:23.977Z,96110.53
2022-09-17T17:13:52.157Z,96106.18
2022-09-17T17:16:20.280Z,96098.88
2022-09-17T17:18:49.171Z,96101.73
2022-09-17T17:21:17.493Z,96110.05
2022-09-17T17:23:48.010Z,96116.38
2022-09-17T17:26:17.078Z,96121.88
2022-09-17T17:28:45.246Z,96134.24
2022-09-17T17:31:13.740Z,96137.02
2022-09-17T17:33:42.007Z,96131.41
2022-09-17T17:36:11.717Z,96134.18
2022-09-17T17:38:40.428Z,96131.25
2022-09-17T17:41:11.391Z,96116.55
2022-09-17T17:43:39.720Z,96114.55
2022-09-17T17:46:13.107Z,96114.05
2022-09-17T17:48:42.058Z,96108.03
2022-09-17T17:51:10.912Z,96096.26
2022-09-17T17:53:42.871Z,96088.48
2022-09-17T17:56:12.432Z,96087.63
2022-09-17T17:58:41.125Z,96083.98
2022-09-17T18:01:23.636Z,96086.78
2022-09-17T18:04:00.524Z,96089.77
2022-09-17T18:06:30.605Z,96091.17
2022-09-17T18:09:00.510Z,96084.34
2022-09-17T18:11:30.289Z,96081.54
2022-09-17T18:14:01.245Z,96082.95
2022-09-17T18:16:29.817Z,96086.59
2022-09-17T18:18:58.736Z,96093.53
2022-09-17T18:21:27.821Z,96096.67
2022-09-17T18:23:56.562Z,96091.48
2022-09-17T18:26:28.375Z,96096.42
2022-09-17T18:28:56.647Z,96089.13
2022-09-17T18:31:33.618Z,96096.27
2022-09-17T18:34:12.735Z,96101.98
2022-09-17T18:36:46.502Z,96096.13
2022-09-17T18:42:11.594Z,96110.27
2022-09-17T18:44:40.607Z,96126.84
2022-09-17T18:47:09.476Z,96139.20
2022-09-17T18:49:38.985Z,96159.48
2022-09-17T18:52:07.175Z,96179.23
2022-09-17T18:54:35.235Z,96176.34
2022-09-17T18:57:03.447Z,96180.00
2022-09-17T18:59:33.388Z,96182.41
2022-09-17T19:02:03.011Z,96182.86
2022-09-17T19:04:31.550Z,96200.08
2022-09-17T19:06:59.712Z,96204.91
2022-09-17T19:09:28.869Z,96204.29
2022-09-17T19:11:56.885Z,96213.02
2022-09-17T19:14:26.116Z,96191.17
2022-09-17T19:16:55.355Z,96169.64
2022-09-17T19:19:24.828Z,96176.91
2022-09-17T19:21:53.095Z,96185.88
2022-09-17T19:24:22.958Z,96177.10
2022-09-17T19:26:51.499Z,96152.57
2022-09-17T19:29:19.907Z,96139.15
2022-09-17T19:31:48.711Z,96125.27
2022-09-17T19:34:17.001Z,96116.67
2022-09-17T19:36:45.328Z,96095.94
2022-09-17T19:39:16.380Z,96085.80
2022-09-17T19:41:44.478Z,96079.44
2022-09-17T19:44:13.798Z,96084.20
2022-09-17T19:46:42.236Z,96096.99
2022-09-17T19:49:11.067Z,96087.05
2022-09-17T19:51:42.655Z,96077.27
2022-09-17T19:54:11.651Z,96070.38
2022-09-17T19:56:40.076Z,96072.24
2022-09-17T19:59:08.869Z,96079.48
2022-09-17T20:01:39.585Z,96079.67
2022-09-17T20:04:08.373Z,96062.67
2022-09-17T20:06:39.493Z,96064.55
2022-09-17T20:09:07.917Z,96067.18
2022-09-17T20:11:41.343Z,96069.79
2022-09-17T20:14:11.043Z,96071.92
2022-09-17T20:16:40.786Z,96073.74
2022-09-17T20:19:13.975Z,96069.55
2022-09-17T20:21:42.191Z,96068.30
2022-09-17T20:24:10.457Z,96073.71
2022-09-17T20:26:39.076Z,96072.48
2022-09-17T20:29:07.186Z,96069.64
2022-09-17T20:31:35.669Z,96064.70
2022-09-17T20:34:06.051Z,96069.59
2022-09-17T20:36:37.213Z,96074.01
2022-09-17T20:39:13.253Z,96076.37
2022-09-17T20:41:43.245Z,96061.60
2022-09-17T20:44:11.933Z,96050.16
2022-09-17T20:46:40.348Z,96056.42
2022-09-17T20:49:08.506Z,96042.46
2022-09-17T20:51:36.568Z,96040.48
2022-09-17T20:54:07.693Z,96047.10
2022-09-17T20:56:35.887Z,96052.27
2022-09-17T20:59:17.942Z,96043.34
2022-09-17T21:01:49.641Z,96051.58
2022-09-17T21:04:22.167Z,96058.65
2022-09-17T21:06:54.284Z,96049.41
2022-09-17T21:09:22.406Z,96063.20
2022-09-17T21:11:50.528Z,96072.23
2022-09-17T21:14:20.723Z,96051.77
2022-09-17T21:16:49.175Z,96021.54
2022-09-17T21:19:17.942Z,96025.09
2022-09-17T21:21:51.890Z,96006.83
2022-09-17T21:24:20.272Z,96006.42
2022-09-17T21:26:54.349Z,96043.00
2022-09-17T21:29:22.516Z,96070.09
2022-09-17T21:31:50.725Z,96089.38
2022-09-17T21:34:19.915Z,96100.23
2022-09-17T21:36:49.890Z,96094.39
2022-09-17T21:39:18.766Z,96077.72
2022-09-17T21:41:48.241Z,96075.16
2022-09-17T21:44:16.368Z,96084.29
2022-09-17T21:46:44.496Z,96075.09
2022-09-17T21:49:14.772Z,96053.99
2022-09-17T21:51:43.208Z,96050.76
2022-09-17T21:54:18.035Z,96046.38
2022-09-17T21:56:46.844Z,96036.20
2022-09-17T21:59:16.751Z,96038.34
2022-09-17T22:01:47.442Z,96046.78
2022-09-17T22:04:18.342Z,96053.80
2022-09-17T22:06:49.234Z,96043.14
2022-09-17T22:09:24.998Z,96035.35
2022-09-17T22:11:53.773Z,96025.04
2022-09-17T22:14:24.278Z,96015.44
2022-09-17T22:16:55.068Z,96013.16
2022-09-17T22:19:25.125Z,96012.23
2022-09-17T22:21:56.713Z,96013.89
2022-09-17T22:24:26.279Z,96013.55
2022-09-17T22:26:58.185Z,96016.56
2022-09-17T22:29:32.694Z,96005.94
2022-09-17T22:32:00.874Z,95999.02
2022-09-17T22:34:29.881Z,95982.88
2022-09-17T22:37:00.166Z,95969.41
2022-09-17T22:39:29.743Z,95953.90
2022-09-17T22:41:58.627Z,95944.25
2022-09-17T22:44:26.794Z,95941.52
2022-09-17T22:46:54.959Z,95940.37
2022-09-17T22:49:23.114Z,95971.59
2022-09-17T22:51:51.127Z,95966.44
2022-09-17T22:54:19.813Z,95977.96
2022-09-17T22:56:49.135Z,96012.42
2022-09-17T22:59:18.432Z,96019.09
2022-09-17T23:01:47.626Z,96025.75
2022-09-17T23:04:15.969Z,96028.42
2022-09-17T23:06:43.972Z,96027.56
2022-09-17T23:09:14.013Z,96009.83
2022-09-17T23:11:42.452Z,95991.29
2022-09-17T23:14:12.928Z,95990.98
2022-09-17T23:16:48.967Z,95992.94
2022-09-17T23:19:19.344Z,95997.87
2022-09-17T23:21:47.486Z,95998.25
2022-09-17T23:24:20.388Z,95987.71
2022-09-17T23:26:49.437Z,95985.52
2022-09-17T23:29:18.278Z,95979.76
2022-09-17T23:31:46.447Z,95984.02
2022-09-17T23:34:14.831Z,95984.08
2022-09-17T23:36:42.927Z,95977.70
2022-09-17T23:39:12.547Z,95977.84
2022-09-17T23:41:44.853Z,95986.40
2022-09-17T23:44:15.783Z,95989.66
2022-09-17T23:46:48.644Z,95990.48
2022-09-17T23:49:16.903Z,95989.70
2022-09-17T23:51:45.548Z,95968.10
2022-09-17T23:54:13.877Z,95970.64
2022-09-17T23:56:42.210Z,95986.36
2022-09-17T23:59:11.759Z,95996.67
